Time;durP1;ratioP1;P1;durP2;ratioP2;P2;SDS_P1;SDS_P2;PMS_P1;PMS_P2;Temp;Humidity;BMP_temperature;BMP_pressure;BME280_temperature;BME280_humidity;BME280_pressure;Samples;Min_cycle;Max_cycle;Signal;HPM_P1;HPM_P2
2023/03/17 00:00:43;;;;;;;4.95;2.85;;;;;;;;;;5116709;28;20052;-69
2023/03/17 00:03:24;;;;;;;3.47;3.13;;;;;;;;;;5120928;27;20048;-70
2023/03/17 00:05:52;;;;;;;7.30;4.75;;;;;;;;;;5121584;27;20109;-70
2023/03/17 00:08:21;;;;;;;2.90;2.70;;;;;;;;;;5121069;28;20055;-70
2023/03/17 00:10:48;;;;;;;4.32;3.08;;;;;;;;;;5120731;27;20594;-70
2023/03/17 00:13:15;;;;;;;4.05;3.38;;;;;;;;;;5121794;27;20135;-69
2023/03/17 00:15:42;;;;;;;6.80;3.25;;;;;;;;;;5121108;27;20075;-69
2023/03/17 00:18:16;;;;;;;3.22;2.83;;;;;;;;;;5121640;27;20087;-70
2023/03/17 00:20:43;;;;;;;10.63;3.35;;;;;;;;;;5120939;27;20052;-70
2023/03/17 00:23:14;;;;;;;3.60;2.95;;;;;;;;;;5116045;27;20051;-69
2023/03/17 00:25:42;;;;;;;3.65;2.83;;;;;;;;;;5121599;27;20048;-70
2023/03/17 00:28:12;;;;;;;3.60;3.30;;;;;;;;;;5121462;27;20055;-70
2023/03/17 00:30:39;;;;;;;3.53;3.33;;;;;;;;;;5120940;27;20093;-69
2023/03/17 00:33:06;;;;;;;3.22;2.92;;;;;;;;;;5121353;28;20043;-70
2023/03/17 00:35:33;;;;;;;4.95;3.80;;;;;;;;;;5121199;27;20044;-70
2023/03/17 00:37:59;;;;;;;4.05;2.78;;;;;;;;;;5120744;27;20067;-70
2023/03/17 00:40:31;;;;;;;4.78;3.90;;;;;;;;;;5120112;28;20040;-70
2023/03/17 00:42:58;;;;;;;3.80;3.25;;;;;;;;;;5121329;27;20047;-69
2023/03/17 00:45:25;;;;;;;3.70;3.22;;;;;;;;;;5120122;28;20572;-70
2023/03/17 00:47:56;;;;;;;3.65;3.35;;;;;;;;;;5121269;27;20094;-69
2023/03/17 00:50:24;;;;;;;4.47;3.33;;;;;;;;;;5121027;27;20132;-71
2023/03/17 00:52:51;;;;;;;7.80;3.30;;;;;;;;;;5119432;28;20102;-70
2023/03/17 00:55:18;;;;;;;4.00;3.15;;;;;;;;;;5116542;27;20044;-70
2023/03/17 00:57:47;;;;;;;3.35;3.00;;;;;;;;;;5099877;28;20048;-70
2023/03/17 01:00:19;;;;;;;3.30;3.03;;;;;;;;;;5101014;28;20045;-70
2023/03/17 01:02:48;;;;;;;5.97;3.28;;;;;;;;;;5100431;28;20119;-70
2023/03/17 01:05:15;;;;;;;3.25;2.88;;;;;;;;;;5115388;28;20555;-71
2023/03/17 01:07:46;;;;;;;4.35;3.22;;;;;;;;;;5100840;28;20057;-71
2023/03/17 01:10:15;;;;;;;5.22;3.40;;;;;;;;;;5116512;28;20053;-71
2023/03/17 01:12:42;;;;;;;6.40;3.00;;;;;;;;;;5098943;28;20748;-71
2023/03/17 01:15:11;;;;;;;5.07;3.38;;;;;;;;;;5133113;27;20076;-71
2023/03/17 01:17:38;;;;;;;8.57;3.60;;;;;;;;;;5100141;28;20573;-71
2023/03/17 01:20:06;;;;;;;8.98;3.72;;;;;;;;;;5100068;28;20141;-71
2023/03/17 01:22:33;;;;;;;4.03;2.97;;;;;;;;;;5134640;27;20494;-71
2023/03/17 01:25:00;;;;;;;4.00;3.60;;;;;;;;;;5101910;28;20044;-70
2023/03/17 01:27:26;;;;;;;10.13;3.70;;;;;;;;;;5139815;27;20062;-70
2023/03/17 01:29:53;;;;;;;7.40;3.30;;;;;;;;;;5119206;28;20043;-70
2023/03/17 01:32:21;;;;;;;4.32;3.95;;;;;;;;;;5123902;27;20044;-70
2023/03/17 01:34:47;;;;;;;7.47;3.70;;;;;;;;;;5122991;28;20050;-70
2023/03/17 01:37:13;;;;;;;6.85;4.18;;;;;;;;;;5124413;28;20093;-70
2023/03/17 01:39:40;;;;;;;8.45;3.03;;;;;;;;;;5123681;27;20058;-70
2023/03/17 01:42:07;;;;;;;4.95;3.85;;;;;;;;;;5124101;27;20059;-69
2023/03/17 01:44:33;;;;;;;8.98;3.33;;;;;;;;;;5122918;28;20059;-70
2023/03/17 01:47:00;;;;;;;3.45;2.88;;;;;;;;;;5120738;27;20048;-70
2023/03/17 01:49:28;;;;;;;5.45;3.13;;;;;;;;;;5122807;28;20052;-70
2023/03/17 01:52:07;;;;;;;5.70;3.42;;;;;;;;;;5122534;28;20063;-70
2023/03/17 01:54:46;;;;;;;11.70;3.55;;;;;;;;;;5105350;28;20592;-70
2023/03/17 01:57:22;;;;;;;6.20;3.10;;;;;;;;;;5124215;27;20036;-70
2023/03/17 01:59:50;;;;;;;9.20;3.03;;;;;;;;;;5121839;28;20055;-70
2023/03/17 02:02:18;;;;;;;5.13;2.70;;;;;;;;;;5118131;28;20044;-69
2023/03/17 02:04:50;;;;;;;4.10;2.75;;;;;;;;;;5103685;28;20128;-70
2023/03/17 02:07:21;;;;;;;7.35;3.35;;;;;;;;;;5102685;28;20045;-70
2023/03/17 02:09:47;;;;;;;3.15;2.95;;;;;;;;;;5103730;28;20054;-70
2023/03/17 02:12:17;;;;;;;3.85;3.28;;;;;;;;;;5102079;28;20094;-70
2023/03/17 02:14:47;;;;;;;6.50;3.10;;;;;;;;;;5102481;28;20052;-70
2023/03/17 02:17:14;;;;;;;7.18;2.85;;;;;;;;;;5101800;28;20075;-70
2023/03/17 02:19:41;;;;;;;4.40;2.88;;;;;;;;;;5102491;28;20045;-70
2023/03/17 02:22:08;;;;;;;4.75;2.97;;;;;;;;;;5102323;28;20112;-70
2023/03/17 02:24:55;;;;;;;2.97;2.78;;;;;;;;;;5136001;27;20499;-70
2023/03/17 02:27:29;;;;;;;4.40;2.90;;;;;;;;;;5103276;28;20489;-70
2023/03/17 02:29:56;;;;;;;3.35;2.92;;;;;;;;;;5105618;28;20048;-70
2023/03/17 02:32:23;;;;;;;5.90;2.67;;;;;;;;;;5103233;28;20045;-70
2023/03/17 02:34:49;;;;;;;3.42;3.05;;;;;;;;;;5102103;28;20045;-70
2023/03/17 02:37:17;;;;;;;5.47;2.72;;;;;;;;;;5101608;28;20059;-70
2023/03/17 02:39:43;;;;;;;3.88;2.75;;;;;;;;;;5103048;28;20052;-70
2023/03/17 02:42:11;;;;;;;8.38;3.58;;;;;;;;;;5101751;28;20053;-70
2023/03/17 02:44:39;;;;;;;2.90;2.70;;;;;;;;;;5101130;28;20041;-70
2023/03/17 02:47:06;;;;;;;2.63;2.53;;;;;;;;;;5135227;27;20052;-70
2023/03/17 02:49:33;;;;;;;3.88;2.90;;;;;;;;;;5101902;28;20080;-70
2023/03/17 02:52:00;;;;;;;2.75;2.60;;;;;;;;;;5103940;28;20057;-70
2023/03/17 02:54:26;;;;;;;3.08;2.88;;;;;;;;;;5105877;27;20084;-70
2023/03/17 02:56:53;;;;;;;5.50;2.58;;;;;;;;;;5101835;28;20052;-71
2023/03/17 02:59:19;;;;;;;2.75;2.53;;;;;;;;;;5106397;28;20135;-70
2023/03/17 03:01:47;;;;;;;3.30;3.03;;;;;;;;;;5102635;28;20588;-70
2023/03/17 03:04:13;;;;;;;2.75;2.55;;;;;;;;;;5102084;28;20041;-70
2023/03/17 03:06:41;;;;;;;3.03;2.78;;;;;;;;;;5102578;28;20106;-70
2023/03/17 03:09:08;;;;;;;4.32;3.45;;;;;;;;;;5102173;28;20076;-70
2023/03/17 03:11:34;;;;;;;4.47;2.80;;;;;;;;;;5101386;28;20056;-70
2023/03/17 03:14:01;;;;;;;2.72;2.53;;;;;;;;;;5102077;28;20055;-70
2023/03/17 03:16:27;;;;;;;4.72;2.75;;;;;;;;;;5102225;28;20067;-70
2023/03/17 03:18:54;;;;;;;4.68;2.50;;;;;;;;;;5101207;28;20605;-70
2023/03/17 03:21:21;;;;;;;5.93;2.65;;;;;;;;;;5102166;28;20051;-71
2023/03/17 03:23:47;;;;;;;3.95;2.50;;;;;;;;;;5117494;28;20052;-70
2023/03/17 03:26:14;;;;;;;4.57;2.80;;;;;;;;;;5121769;27;20056;-70
2023/03/17 03:28:41;;;;;;;3.25;2.60;;;;;;;;;;5123213;27;20044;-69
2023/03/17 03:31:07;;;;;;;3.30;2.72;;;;;;;;;;5122095;27;20536;-70
2023/03/17 03:33:33;;;;;;;3.42;2.60;;;;;;;;;;5121916;28;20083;-70
2023/03/17 03:36:00;;;;;;;3.63;2.90;;;;;;;;;;5122138;27;20048;-70
2023/03/17 03:38:27;;;;;;;2.92;2.72;;;;;;;;;;5121537;27;20492;-70
2023/03/17 03:40:53;;;;;;;3.75;2.78;;;;;;;;;;5122018;28;20462;-70
2023/03/17 03:43:22;;;;;;;3.75;2.78;;;;;;;;;;5122208;28;20093;-72
2023/03/17 03:45:50;;;;;;;3.03;2.80;;;;;;;;;;5117783;27;20051;-71
2023/03/17 03:48:17;;;;;;;4.57;2.38;;;;;;;;;;5103804;27;20041;-70
2023/03/17 03:50:43;;;;;;;2.55;2.35;;;;;;;;;;5101844;28;20052;-70
2023/03/17 03:53:10;;;;;;;2.78;2.58;;;;;;;;;;5100637;28;20143;-70
2023/03/17 03:55:36;;;;;;;3.10;2.55;;;;;;;;;;5101588;28;20135;-70
2023/03/17 03:58:03;;;;;;;7.20;3.28;;;;;;;;;;5101088;28;20534;-70
2023/03/17 04:00:29;;;;;;;4.28;2.60;;;;;;;;;;5100930;28;20056;-70
2023/03/17 04:02:56;;;;;;;3.22;2.83;;;;;;;;;;5101906;28;20049;-71
2023/03/17 04:05:22;;;;;;;2.60;2.40;;;;;;;;;;5101296;28;20052;-70
2023/03/17 04:07:49;;;;;;;2.50;2.30;;;;;;;;;;5100290;28;20036;-71
2023/03/17 04:10:16;;;;;;;4.88;2.10;;;;;;;;;;5101570;28;20048;-70
2023/03/17 04:12:42;;;;;;;3.10;2.88;;;;;;;;;;5101379;28;20044;-70
2023/03/17 04:15:10;;;;;;;2.53;2.33;;;;;;;;;;5104310;28;20056;-70
2023/03/17 04:17:36;;;;;;;4.50;2.25;;;;;;;;;;5101786;27;20048;-70
2023/03/17 04:20:03;;;;;;;3.45;2.40;;;;;;;;;;5101624;28;20131;-70
2023/03/17 04:22:29;;;;;;;2.88;2.60;;;;;;;;;;5100502;28;20500;-70
2023/03/17 04:24:56;;;;;;;7.75;2.70;;;;;;;;;;5101033;28;20143;-70
2023/03/17 04:27:22;;;;;;;2.88;2.33;;;;;;;;;;5101069;28;20124;-70
2023/03/17 04:29:49;;;;;;;2.75;2.55;;;;;;;;;;5100200;28;20620;-70
2023/03/17 04:32:15;;;;;;;3.00;2.67;;;;;;;;;;5101085;28;20052;-70
2023/03/17 04:34:42;;;;;;;2.40;2.25;;;;;;;;;;5100575;28;20156;-70
2023/03/17 04:37:09;;;;;;;5.10;2.70;;;;;;;;;;5101294;28;20273;-71
2023/03/17 04:39:36;;;;;;;5.93;2.83;;;;;;;;;;5100954;28;20128;-71
2023/03/17 04:42:03;;;;;;;3.97;2.47;;;;;;;;;;5099782;28;20136;-71
2023/03/17 04:44:29;;;;;;;9.57;2.60;;;;;;;;;;5109353;28;20052;-70
2023/03/17 04:46:56;;;;;;;2.63;2.30;;;;;;;;;;5121745;27;20044;-70
2023/03/17 04:49:22;;;;;;;4.70;2.22;;;;;;;;;;5120522;28;20044;-70
2023/03/17 04:51:48;;;;;;;4.10;2.53;;;;;;;;;;5120158;27;20052;-71
2023/03/17 04:54:15;;;;;;;2.42;2.33;;;;;;;;;;5121406;28;20082;-71
2023/03/17 04:56:41;;;;;;;3.67;2.42;;;;;;;;;;5119763;28;20507;-70
2023/03/17 04:59:08;;;;;;;2.38;2.13;;;;;;;;;;5122057;27;20052;-70
2023/03/17 05:01:35;;;;;;;4.68;2.75;;;;;;;;;;5121095;27;20048;-70
2023/03/17 05:04:05;;;;;;;5.55;2.30;;;;;;;;;;5120017;27;20040;-70
2023/03/17 05:06:31;;;;;;;3.30;2.67;;;;;;;;;;5121091;27;21054;-70
2023/03/17 05:08:58;;;;;;;3.35;2.05;;;;;;;;;;5117002;28;20121;-70
2023/03/17 05:11:24;;;;;;;5.95;2.28;;;;;;;;;;5099716;28;20048;-70
2023/03/17 05:13:51;;;;;;;2.17;2.08;;;;;;;;;;5100346;28;20131;-70
2023/03/17 05:16:17;;;;;;;2.58;2.38;;;;;;;;;;5100571;28;20114;-70
2023/03/17 05:18:45;;;;;;;2.45;2.25;;;;;;;;;;5100256;28;20055;-70
2023/03/17 05:21:12;;;;;;;3.83;2.20;;;;;;;;;;5100561;28;20106;-70
2023/03/17 05:23:39;;;;;;;2.38;2.17;;;;;;;;;;5100649;28;20091;-70
2023/03/17 05:26:05;;;;;;;5.38;2.10;;;;;;;;;;5100205;27;20052;-70
2023/03/17 05:28:32;;;;;;;3.05;2.30;;;;;;;;;;5100403;28;20057;-70
2023/03/17 05:30:58;;;;;;;2.35;2.00;;;;;;;;;;5099896;28;20056;-70
2023/03/17 05:33:27;;;;;;;4.47;2.42;;;;;;;;;;5100666;28;20496;-70
2023/03/17 05:35:55;;;;;;;4.38;2.90;;;;;;;;;;5104024;28;20098;-71
2023/03/17 05:38:22;;;;;;;3.22;2.33;;;;;;;;;;5100417;28;20041;-70
2023/03/17 05:40:50;;;;;;;5.63;2.42;;;;;;;;;;5100954;28;20053;-70
2023/03/17 05:43:16;;;;;;;7.82;2.83;;;;;;;;;;5101056;28;20504;-70
2023/03/17 05:45:43;;;;;;;3.60;2.13;;;;;;;;;;5100337;28;20511;-70
2023/03/17 05:48:11;;;;;;;6.10;2.45;;;;;;;;;;5100686;28;20835;-70
2023/03/17 05:50:38;;;;;;;2.60;2.40;;;;;;;;;;5102046;28;20128;-70
2023/03/17 05:53:05;;;;;;;3.05;2.40;;;;;;;;;;5099381;28;20048;-70
2023/03/17 05:55:31;;;;;;;7.80;2.33;;;;;;;;;;5100178;28;20045;-70
2023/03/17 05:57:59;;;;;;;3.42;2.33;;;;;;;;;;5099466;28;20053;-70
2023/03/17 06:00:27;;;;;;;2.65;2.30;;;;;;;;;;5105279;28;20044;-70
2023/03/17 06:02:54;;;;;;;5.32;2.92;;;;;;;;;;5120324;27;20052;-70
2023/03/17 06:05:21;;;;;;;2.70;2.00;;;;;;;;;;5120414;27;20758;-70
2023/03/17 06:07:47;;;;;;;6.47;2.50;;;;;;;;;;5114899;27;20048;-70
2023/03/17 06:10:22;;;;;;;2.50;2.30;;;;;;;;;;5123791;28;20048;-70
2023/03/17 06:12:48;;;;;;;10.73;2.70;;;;;;;;;;5123527;27;20048;-70
2023/03/17 06:15:15;;;;;;;2.83;2.47;;;;;;;;;;5123039;27;20051;-70
2023/03/17 06:17:42;;;;;;;2.90;2.70;;;;;;;;;;5122792;27;20048;-70
2023/03/17 06:20:09;;;;;;;7.70;2.22;;;;;;;;;;5122653;27;20055;-70
2023/03/17 06:22:36;;;;;;;3.38;2.33;;;;;;;;;;5123830;28;20048;-70
2023/03/17 06:25:03;;;;;;;5.10;2.50;;;;;;;;;;5123444;27;20147;-70
2023/03/17 06:27:29;;;;;;;2.58;2.17;;;;;;;;;;5122964;27;20123;-69
2023/03/17 06:29:56;;;;;;;4.90;2.88;;;;;;;;;;5123102;28;20072;-70
2023/03/17 06:32:23;;;;;;;5.88;2.63;;;;;;;;;;5123465;27;20086;-70
2023/03/17 06:34:50;;;;;;;3.92;2.88;;;;;;;;;;5121624;27;20048;-70
2023/03/17 06:37:17;;;;;;;3.03;2.30;;;;;;;;;;5118822;27;20121;-70
2023/03/17 06:39:44;;;;;;;2.60;2.38;;;;;;;;;;5123564;28;20078;-70
2023/03/17 06:42:10;;;;;;;2.97;2.63;;;;;;;;;;5122312;27;20217;-70
2023/03/17 06:44:36;;;;;;;2.67;2.38;;;;;;;;;;5123158;28;20051;-70
2023/03/17 06:47:03;;;;;;;7.20;2.60;;;;;;;;;;5122871;28;20040;-70
2023/03/17 06:49:30;;;;;;;3.80;2.75;;;;;;;;;;5122649;27;20044;-70
2023/03/17 06:51:56;;;;;;;4.22;2.65;;;;;;;;;;5122129;28;20134;-70
2023/03/17 06:54:24;;;;;;;3.53;2.42;;;;;;;;;;5123282;27;20048;-70
2023/03/17 06:56:51;;;;;;;5.35;3.08;;;;;;;;;;5122214;27;20055;-70
2023/03/17 06:59:18;;;;;;;4.05;2.70;;;;;;;;;;5122839;27;20048;-70
2023/03/17 07:01:45;;;;;;;2.95;2.65;;;;;;;;;;5116844;27;20056;-70
2023/03/17 07:04:11;;;;;;;5.15;2.85;;;;;;;;;;5118306;27;20496;-70
2023/03/17 07:06:38;;;;;;;7.47;2.33;;;;;;;;;;5109189;28;20515;-70
2023/03/17 07:09:06;;;;;;;5.28;2.60;;;;;;;;;;5118564;27;20059;-70
2023/03/17 07:11:32;;;;;;;3.20;2.75;;;;;;;;;;5122067;27;20040;-70
2023/03/17 07:13:59;;;;;;;7.28;2.65;;;;;;;;;;5122259;28;20059;-70
2023/03/17 07:16:26;;;;;;;3.47;2.75;;;;;;;;;;5104430;27;20139;-70
2023/03/17 07:18:53;;;;;;;12.43;2.97;;;;;;;;;;5105003;27;20040;-70
2023/03/17 07:21:19;;;;;;;2.70;2.50;;;;;;;;;;5119213;28;20051;-71
2023/03/17 07:23:46;;;;;;;8.60;3.03;;;;;;;;;;5121898;28;20117;-69
2023/03/17 07:26:13;;;;;;;3.08;2.83;;;;;;;;;;5114855;27;20109;-70
2023/03/17 07:28:39;;;;;;;3.75;2.80;;;;;;;;;;5121382;27;20048;-70
2023/03/17 07:31:12;;;;;;;5.03;3.30;;;;;;;;;;5119673;28;20048;-69
2023/03/17 07:33:41;;;;;;;2.88;2.50;;;;;;;;;;5115581;28;20036;-70
2023/03/17 07:36:09;;;;;;;5.30;2.85;;;;;;;;;;5117840;27;20051;-70
2023/03/17 07:38:36;;;;;;;3.47;3.15;;;;;;;;;;5119418;27;20048;-70
2023/03/17 07:41:03;;;;;;;5.93;2.85;;;;;;;;;;5109297;27;20052;-70
2023/03/17 07:43:30;;;;;;;3.22;2.65;;;;;;;;;;5117875;27;20051;-69
2023/03/17 07:45:57;;;;;;;2.55;2.35;;;;;;;;;;5118596;28;21015;-70
2023/03/17 07:48:23;;;;;;;4.07;3.17;;;;;;;;;;5121665;27;20040;-70
2023/03/17 07:50:49;;;;;;;7.85;2.83;;;;;;;;;;5121745;27;20044;-70
2023/03/17 07:53:16;;;;;;;5.25;2.78;;;;;;;;;;5121331;28;20564;-71
2023/03/17 07:55:42;;;;;;;5.65;3.25;;;;;;;;;;5122264;27;20561;-70
2023/03/17 07:58:09;;;;;;;5.72;2.55;;;;;;;;;;5121462;28;20051;-70
2023/03/17 08:00:35;;;;;;;6.75;2.90;;;;;;;;;;5121356;27;20932;-70
2023/03/17 08:03:02;;;;;;;4.28;3.03;;;;;;;;;;5120022;28;20106;-70
2023/03/17 08:05:36;;;;;;;6.18;2.83;;;;;;;;;;5121236;27;20059;-70
2023/03/17 08:08:04;;;;;;;5.35;2.80;;;;;;;;;;5121651;27;20044;-70
2023/03/17 08:10:30;;;;;;;3.60;2.97;;;;;;;;;;5121757;27;20048;-70
2023/03/17 08:12:57;;;;;;;7.47;2.72;;;;;;;;;;5121046;27;20052;-70
2023/03/17 08:15:24;;;;;;;5.47;3.15;;;;;;;;;;5121806;28;20044;-70
2023/03/17 08:17:50;;;;;;;4.05;2.80;;;;;;;;;;5121811;28;20060;-70
2023/03/17 08:20:16;;;;;;;2.92;2.72;;;;;;;;;;5120997;27;20048;-70
2023/03/17 08:22:43;;;;;;;4.88;3.25;;;;;;;;;;5121845;28;20131;-70
2023/03/17 08:25:10;;;;;;;3.35;2.50;;;;;;;;;;5121444;28;20048;-70
2023/03/17 08:27:37;;;;;;;3.22;2.90;;;;;;;;;;5120796;27;20862;-70
2023/03/17 08:30:04;;;;;;;4.82;2.83;;;;;;;;;;5121346;27;20611;-70
2023/03/17 08:32:31;;;;;;;5.25;3.22;;;;;;;;;;5116393;27;20423;-70
2023/03/17 08:34:57;;;;;;;5.78;3.20;;;;;;;;;;5120654;27;20055;-70
2023/03/17 08:37:23;;;;;;;4.25;3.33;;;;;;;;;;5121711;27;20579;-70
2023/03/17 08:39:50;;;;;;;4.00;3.42;;;;;;;;;;5121358;28;20052;-70
2023/03/17 08:42:16;;;;;;;3.95;2.90;;;;;;;;;;5121156;28;20052;-70
2023/03/17 08:44:43;;;;;;;4.32;3.05;;;;;;;;;;5118440;28;20102;-70
2023/03/17 08:47:09;;;;;;;14.63;2.97;;;;;;;;;;5100848;28;20049;-70
2023/03/17 08:49:36;;;;;;;4.70;3.00;;;;;;;;;;5100214;28;20131;-70
2023/03/17 08:52:02;;;;;;;3.25;2.75;;;;;;;;;;5100536;28;20107;-70
2023/03/17 08:54:29;;;;;;;3.72;2.80;;;;;;;;;;5100510;28;20512;-70
2023/03/17 08:56:56;;;;;;;5.80;3.10;;;;;;;;;;5099756;28;20049;-70
2023/03/17 08:59:22;;;;;;;8.00;2.92;;;;;;;;;;5100457;28;20168;-70
2023/03/17 09:01:49;;;;;;;5.30;3.42;;;;;;;;;;5110229;28;20089;-70
2023/03/17 09:04:15;;;;;;;7.70;3.90;;;;;;;;;;5121062;28;20573;-70
2023/03/17 09:06:42;;;;;;;5.22;3.03;;;;;;;;;;5121031;28;20052;-70
2023/03/17 09:09:29;;;;;;;4.15;2.97;;;;;;;;;;5120357;27;20048;-70
2023/03/17 09:11:56;;;;;;;5.22;4.28;;;;;;;;;;5120660;27;20072;-70
2023/03/17 09:14:23;;;;;;;6.35;3.90;;;;;;;;;;5121153;28;20056;-70
2023/03/17 09:16:50;;;;;;;7.15;3.08;;;;;;;;;;5104633;27;20139;-70
2023/03/17 09:19:16;;;;;;;8.65;3.55;;;;;;;;;;5106180;28;20051;-70
2023/03/17 09:21:43;;;;;;;3.40;3.05;;;;;;;;;;5121079;27;20052;-70
2023/03/17 09:24:10;;;;;;;5.40;2.95;;;;;;;;;;5119986;27;20092;-70
2023/03/17 09:26:36;;;;;;;5.40;3.35;;;;;;;;;;5120816;28;20048;-70
2023/03/17 09:29:04;;;;;;;3.85;3.38;;;;;;;;;;5120202;28;20397;-70
2023/03/17 09:31:31;;;;;;;5.80;3.42;;;;;;;;;;5120089;27;20111;-70
2023/03/17 09:33:57;;;;;;;5.97;3.63;;;;;;;;;;5120348;27;20478;-70
2023/03/17 09:36:24;;;;;;;5.68;3.58;;;;;;;;;;5120919;27;20040;-70
2023/03/17 09:38:51;;;;;;;3.70;3.40;;;;;;;;;;5119783;28;20048;-70
2023/03/17 09:41:36;;;;;;;4.07;3.67;;;;;;;;;;5120731;28;20585;-70
2023/03/17 09:44:13;;;;;;;4.25;3.50;;;;;;;;;;5121301;27;20450;-70
2023/03/17 09:46:58;;;;;;;6.32;3.70;;;;;;;;;;5121988;27;20105;-70
2023/03/17 09:49:37;;;;;;;3.60;3.15;;;;;;;;;;5103714;28;20060;-70
2023/03/17 09:52:03;;;;;;;4.90;3.20;;;;;;;;;;5102806;28;20083;-70
2023/03/17 09:54:32;;;;;;;5.65;3.75;;;;;;;;;;5103590;28;20059;-70
2023/03/17 09:57:17;;;;;;;4.90;3.35;;;;;;;;;;5118932;28;20577;-70
2023/03/17 09:59:46;;;;;;;5.45;3.80;;;;;;;;;;5123222;27;20040;-70
2023/03/17 10:02:16;;;;;;;4.88;3.53;;;;;;;;;;5124136;27;20082;-70
2023/03/17 10:04:43;;;;;;;4.53;3.53;;;;;;;;;;5124262;27;20044;-70
2023/03/17 10:07:14;;;;;;;4.32;3.92;;;;;;;;;;5122934;27;20113;-70
2023/03/17 10:09:45;;;;;;;3.53;3.22;;;;;;;;;;5123916;27;20052;-70
2023/03/17 10:12:18;;;;;;;5.07;3.25;;;;;;;;;;5118315;27;20052;-70
2023/03/17 10:14:53;;;;;;;10.20;3.95;;;;;;;;;;5123649;27;20076;-70
2023/03/17 10:17:25;;;;;;;5.35;3.67;;;;;;;;;;5123656;27;20066;-70
2023/03/17 10:20:07;;;;;;;6.07;3.80;;;;;;;;;;5122616;27;20055;-70
2023/03/17 10:22:37;;;;;;;3.55;3.25;;;;;;;;;;5123721;27;20044;-70
2023/03/17 10:25:08;;;;;;;4.03;3.65;;;;;;;;;;5123494;27;20052;-70
2023/03/17 10:27:36;;;;;;;7.45;3.90;;;;;;;;;;5122626;27;20048;-70
2023/03/17 10:30:03;;;;;;;14.80;3.70;;;;;;;;;;5123200;27;20059;-70
2023/03/17 10:32:31;;;;;;;6.70;4.00;;;;;;;;;;5136167;27;20089;-70
2023/03/17 10:34:57;;;;;;;7.40;3.63;;;;;;;;;;5122640;27;20056;-70
2023/03/17 10:37:25;;;;;;;6.32;3.70;;;;;;;;;;5123355;28;20056;-70
2023/03/17 10:39:55;;;;;;;4.53;3.58;;;;;;;;;;5112521;27;21092;-70
2023/03/17 10:42:26;;;;;;;5.70;3.58;;;;;;;;;;5102258;28;20075;-70
2023/03/17 10:44:55;;;;;;;10.23;3.83;;;;;;;;;;5102803;28;20048;-70
2023/03/17 10:47:23;;;;;;;12.57;3.90;;;;;;;;;;5101791;28;20095;-70
2023/03/17 10:49:51;;;;;;;8.05;4.18;;;;;;;;;;5102507;28;20515;-70
2023/03/17 10:52:19;;;;;;;5.65;3.38;;;;;;;;;;5102812;28;20500;-71
2023/03/17 10:54:47;;;;;;;7.72;3.95;;;;;;;;;;5109233;27;20048;-70
2023/03/17 10:57:14;;;;;;;3.97;3.58;;;;;;;;;;5123083;27;20059;-70
2023/03/17 10:59:42;;;;;;;6.32;4.05;;;;;;;;;;5122707;27;20052;-70
2023/03/17 11:02:18;;;;;;;4.80;3.70;;;;;;;;;;5122172;27;20189;-70
2023/03/17 11:04:45;;;;;;;6.03;3.83;;;;;;;;;;5122940;27;20105;-70
2023/03/17 11:07:15;;;;;;;7.97;3.85;;;;;;;;;;5122703;27;20064;-70
2023/03/17 11:09:41;;;;;;;6.47;4.00;;;;;;;;;;5112594;27;20055;-70
2023/03/17 11:12:28;;;;;;;5.25;3.42;;;;;;;;;;5102002;28;20057;-70
2023/03/17 11:14:59;;;;;;;7.93;3.80;;;;;;;;;;5102130;28;20519;-70
2023/03/17 11:17:40;;;;;;;6.85;3.72;;;;;;;;;;5101753;28;20114;-70
2023/03/17 11:20:25;;;;;;;6.35;3.70;;;;;;;;;;5101947;28;20403;-70
2023/03/17 11:22:55;;;;;;;8.57;4.15;;;;;;;;;;5101352;28;20060;-70
2023/03/17 11:25:23;;;;;;;6.05;3.67;;;;;;;;;;5102016;28;20051;-70
2023/03/17 11:27:56;;;;;;;4.78;3.80;;;;;;;;;;5101438;28;20063;-70
2023/03/17 11:30:38;;;;;;;7.35;4.07;;;;;;;;;;5106298;28;20056;-69
2023/03/17 11:33:07;;;;;;;8.15;4.18;;;;;;;;;;5101715;28;20083;-70
2023/03/17 11:35:52;;;;;;;8.32;3.33;;;;;;;;;;5101967;28;20049;-70
2023/03/17 11:38:23;;;;;;;8.75;3.95;;;;;;;;;;5101250;28;20048;-70
2023/03/17 11:40:59;;;;;;;5.40;3.88;;;;;;;;;;5101644;28;20045;-70
2023/03/17 11:43:42;;;;;;;9.40;4.30;;;;;;;;;;5101935;28;20056;-70
2023/03/17 11:46:21;;;;;;;5.60;4.03;;;;;;;;;;5113342;28;20512;-70
2023/03/17 11:49:06;;;;;;;4.60;3.95;;;;;;;;;;5111870;27;20569;-70
2023/03/17 11:51:39;;;;;;;10.40;4.05;;;;;;;;;;5106921;27;20123;-70
2023/03/17 11:54:08;;;;;;;;;;;;;;;;;;5116291;27;20537;-71
2023/03/17 11:56:43;;;;;;;7.60;3.60;;;;;;;;;;5116264;28;35714;-69
2023/03/17 11:59:32;;;;;;;9.63;4.28;;;;;;;;;;5120812;27;20155;-70
2023/03/17 12:02:10;;;;;;;6.03;4.22;;;;;;;;;;5119387;27;20048;-71
2023/03/17 12:04:39;;;;;;;7.88;3.92;;;;;;;;;;5120449;27;20105;-70
2023/03/17 12:07:24;;;;;;;10.02;4.00;;;;;;;;;;5116355;28;20048;-70
2023/03/17 12:10:14;;;;;;;6.78;4.20;;;;;;;;;;5120356;27;20048;-70
2023/03/17 12:12:50;;;;;;;4.50;4.10;;;;;;;;;;5112777;27;20739;-70
2023/03/17 12:15:36;;;;;;;4.93;4.00;;;;;;;;;;5102881;28;20048;-69
2023/03/17 12:18:09;;;;;;;4.57;3.75;;;;;;;;;;5114688;27;20158;-70
2023/03/17 12:20:54;;;;;;;11.07;3.30;;;;;;;;;;5120971;27;20048;-70
2023/03/17 12:23:21;;;;;;;4.60;3.53;;;;;;;;;;5121315;28;20055;-70
2023/03/17 12:25:57;;;;;;;6.05;3.63;;;;;;;;;;5120933;27;20055;-70
2023/03/17 12:28:27;;;;;;;3.95;3.42;;;;;;;;;;5121879;27;20118;-70
2023/03/17 12:30:59;;;;;;;11.32;5.28;;;;;;;;;;5121200;27;20534;-70
2023/03/17 12:33:44;;;;;;;5.97;3.97;;;;;;;;;;5118183;27;20044;-70
2023/03/17 12:36:13;;;;;;;5.65;4.00;;;;;;;;;;5120950;27;20044;-70
2023/03/17 12:38:43;;;;;;;6.90;4.32;;;;;;;;;;5121350;27;20052;-70
2023/03/17 12:41:16;;;;;;;8.25;4.75;;;;;;;;;;5104839;27;20106;-70
2023/03/17 12:43:52;;;;;;;10.02;4.13;;;;;;;;;;5108387;28;20052;-70
2023/03/17 12:46:19;;;;;;;9.45;3.60;;;;;;;;;;5117026;27;20051;-70
2023/03/17 12:49:09;;;;;;;8.90;3.78;;;;;;;;;;5108293;27;20492;-70
2023/03/17 12:51:38;;;;;;;;;;;;;;;;;;5112595;27;20072;-70
2023/03/17 12:54:11;;;;;;;6.32;3.92;;;;;;;;;;5114968;28;20666;-70
2023/03/17 12:56:42;;;;;;;6.75;4.15;;;;;;;;;;5121489;27;20043;-70
2023/03/17 12:59:14;;;;;;;8.30;3.55;;;;;;;;;;5118381;27;20133;-69
2023/03/17 13:01:45;;;;;;;6.57;4.63;;;;;;;;;;5111836;27;20056;-70
2023/03/17 13:04:11;;;;;;;7.97;4.22;;;;;;;;;;5114935;27;20520;-70
2023/03/17 13:06:42;;;;;;;6.15;4.40;;;;;;;;;;5112690;28;20078;-70
2023/03/17 13:09:38;;;;;;;7.40;4.25;;;;;;;;;;5120122;27;20048;-70
2023/03/17 13:12:05;;;;;;;7.88;4.28;;;;;;;;;;5105336;27;20097;-70
2023/03/17 13:14:40;;;;;;;4.93;3.97;;;;;;;;;;5118168;27;20058;-70
2023/03/17 13:17:16;;;;;;;7.57;5.20;;;;;;;;;;5120288;27;20569;-69
2023/03/17 13:20:09;;;;;;;5.38;4.22;;;;;;;;;;5122602;27;20474;-70
2023/03/17 13:22:36;;;;;;;;;;;;;;;;;;5108652;28;20060;-70
2023/03/17 13:25:11;;;;;;;7.85;3.83;;;;;;;;;;5102613;28;36802;-70
2023/03/17 13:27:37;;;;;;;6.22;4.25;;;;;;;;;;5104008;28;20537;-70
2023/03/17 13:30:24;;;;;;;5.88;4.05;;;;;;;;;;5105032;28;20163;-70
2023/03/17 13:33:18;;;;;;;5.40;4.57;;;;;;;;;;5112102;27;20056;-70
2023/03/17 13:35:44;;;;;;;5.05;4.45;;;;;;;;;;5107261;28;20059;-70
2023/03/17 13:38:23;;;;;;;7.80;4.32;;;;;;;;;;5117556;28;20101;-70
2023/03/17 13:41:08;;;;;;;10.88;4.80;;;;;;;;;;5124094;28;20055;-70
2023/03/17 13:43:38;;;;;;;5.43;4.45;;;;;;;;;;5103080;28;20474;-70
2023/03/17 13:46:18;;;;;;;5.55;4.57;;;;;;;;;;5103753;28;20049;-70
2023/03/17 13:48:45;;;;;;;8.57;4.85;;;;;;;;;;5111511;28;20467;-70
2023/03/17 13:51:22;;;;;;;8.07;5.13;;;;;;;;;;5123150;27;20127;-72
2023/03/17 13:53:54;;;;;;;8.93;4.43;;;;;;;;;;5122182;27;20048;-70
2023/03/17 13:56:44;;;;;;;7.20;4.47;;;;;;;;;;5120907;28;20084;-71
2023/03/17 13:59:17;;;;;;;6.28;4.90;;;;;;;;;;5122691;27;20052;-71
2023/03/17 14:01:56;;;;;;;4.82;4.03;;;;;;;;;;5124176;27;20106;-70
2023/03/17 14:04:45;;;;;;;8.13;4.60;;;;;;;;;;5123418;27;20071;-71
2023/03/17 14:07:17;;;;;;;6.38;4.80;;;;;;;;;;5123982;27;20074;-70
2023/03/17 14:09:44;;;;;;;9.65;4.97;;;;;;;;;;5123899;27;20497;-70
2023/03/17 14:12:11;;;;;;;14.98;4.35;;;;;;;;;;5118625;27;20053;-70
2023/03/17 14:14:47;;;;;;;5.57;4.50;;;;;;;;;;5103289;28;20053;-70
2023/03/17 14:17:16;;;;;;;11.27;4.35;;;;;;;;;;5103370;28;20401;-70
2023/03/17 14:19:58;;;;;;;7.18;5.20;;;;;;;;;;5102494;28;20045;-70
2023/03/17 14:22:25;;;;;;;7.88;5.35;;;;;;;;;;5103178;28;20051;-70
2023/03/17 14:24:52;;;;;;;7.55;4.40;;;;;;;;;;5102936;28;20090;-71
2023/03/17 14:27:21;;;;;;;10.82;5.15;;;;;;;;;;5102495;28;20826;-71
2023/03/17 14:29:47;;;;;;;5.07;4.57;;;;;;;;;;5103323;28;20541;-71
2023/03/17 14:32:15;;;;;;;9.95;4.53;;;;;;;;;;5123251;28;20040;-71
2023/03/17 14:34:47;;;;;;;5.75;4.38;;;;;;;;;;5122865;27;20142;-70
2023/03/17 14:37:14;;;;;;;10.07;4.57;;;;;;;;;;5123735;27;20058;-70
2023/03/17 14:39:44;;;;;;;5.57;4.78;;;;;;;;;;5122895;27;20113;-70
2023/03/17 14:42:10;;;;;;;11.07;5.35;;;;;;;;;;5123882;27;20052;-70
2023/03/17 14:44:38;;;;;;;11.30;5.15;;;;;;;;;;5123818;28;20137;-70
2023/03/17 14:47:11;;;;;;;8.93;4.85;;;;;;;;;;5122893;27;20131;-70
2023/03/17 14:49:38;;;;;;;7.80;4.65;;;;;;;;;;5123996;27;20059;-70
2023/03/17 14:52:04;;;;;;;7.28;5.07;;;;;;;;;;5123257;27;20070;-70
2023/03/17 14:54:34;;;;;;;5.50;4.60;;;;;;;;;;5122691;27;20423;-70
2023/03/17 14:57:04;;;;;;;9.90;5.25;;;;;;;;;;5123092;27;20507;-71